Time;durP1;ratioP1;P1;durP2;ratioP2;P2;SDS_P1;SDS_P2;PMS_P1;PMS_P2;Temp;Humidity;BMP_temperature;BMP_pressure;BME280_temperature;BME280_humidity;BME280_pressure;Samples;Min_cycle;Max_cycle;Signal;HPM_P1;HPM_P2
2022/06/30 00:00:05;;;;;;;4.97;2.85;;;;;;;27.15;41.76;100816.81;4975711;28;20105;-67
2022/06/30 00:02:30;;;;;;;9.13;2.35;;;;;;;27.13;41.65;100819.00;4974148;28;20118;-67
2022/06/30 00:04:56;;;;;;;6.18;3.63;;;;;;;27.10;41.54;100823.06;4974890;28;20125;-68
2022/06/30 00:07:21;;;;;;;5.35;2.35;;;;;;;27.06;41.67;100813.59;4975019;28;20027;-68
2022/06/30 00:09:46;;;;;;;2.63;1.95;;;;;;;27.02;41.63;100808.81;4974694;28;20038;-68
2022/06/30 00:12:12;;;;;;;4.95;3.13;;;;;;;26.99;42.04;100821.13;4957573;28;20082;-68
2022/06/30 00:14:37;;;;;;;6.28;2.70;;;;;;;26.94;41.82;100812.72;4974817;28;20499;-67
2022/06/30 00:17:03;;;;;;;7.25;2.85;;;;;;;26.93;41.99;100827.56;4975968;28;20031;-67
2022/06/30 00:19:28;;;;;;;2.20;1.85;;;;;;;26.89;42.00;100826.34;4974665;28;20038;-67
2022/06/30 00:21:54;;;;;;;8.27;2.60;;;;;;;26.83;41.93;100827.28;4975886;28;20026;-67
2022/06/30 00:24:19;;;;;;;4.53;2.60;;;;;;;26.77;41.97;100822.72;4974601;28;20019;-67
2022/06/30 00:26:44;;;;;;;6.70;2.80;;;;;;;26.76;41.89;100814.69;4974656;28;20029;-68
2022/06/30 00:29:11;;;;;;;5.47;2.25;;;;;;;26.69;42.17;100813.97;4974544;28;20085;-67
2022/06/30 00:31:37;;;;;;;3.42;2.30;;;;;;;26.68;42.14;100821.38;4958484;28;20395;-67
2022/06/30 00:34:03;;;;;;;4.07;1.95;;;;;;;26.63;42.65;100814.91;4974437;28;20027;-67
2022/06/30 00:36:28;;;;;;;3.15;2.53;;;;;;;26.59;41.63;100812.63;4974336;28;20030;-67
2022/06/30 00:38:53;;;;;;;5.05;1.98;;;;;;;26.52;42.35;100803.63;4958247;28;20037;-67
2022/06/30 00:41:19;;;;;;;5.18;2.60;;;;;;;26.48;42.36;100807.09;4974269;28;20101;-67
2022/06/30 00:43:46;;;;;;;5.30;3.53;;;;;;;26.46;42.78;100809.25;4975386;28;20061;-68
2022/06/30 00:46:11;;;;;;;7.70;3.30;;;;;;;26.38;42.53;100802.13;4958161;28;20033;-67
2022/06/30 00:48:37;;;;;;;3.58;2.17;;;;;;;26.36;42.43;100806.19;4974063;28;20476;-67
2022/06/30 00:51:05;;;;;;;3.75;1.90;;;;;;;26.35;42.75;100813.63;4974085;28;20027;-67
2022/06/30 00:53:32;;;;;;;3.63;2.35;;;;;;;26.32;43.03;100816.00;4958001;28;20018;-67
2022/06/30 00:55:58;;;;;;;5.43;2.53;;;;;;;26.30;42.64;100816.19;4974000;28;20030;-68
2022/06/30 00:58:24;;;;;;;3.30;2.13;;;;;;;26.24;42.97;100811.66;4974060;28;20030;-67
2022/06/30 01:00:50;;;;;;;5.28;2.33;;;;;;;26.25;43.30;100817.97;4973838;28;20476;-67
2022/06/30 01:03:16;;;;;;;4.15;2.05;;;;;;;26.21;42.95;100811.28;4973924;28;20038;-67
2022/06/30 01:05:42;;;;;;;3.08;2.20;;;;;;;26.17;42.97;100821.88;4973838;28;20039;-67
2022/06/30 01:08:07;;;;;;;6.28;2.50;;;;;;;26.14;43.28;100816.00;4973772;28;20030;-67
2022/06/30 01:13:17;;;;;;;4.05;2.08;;;;;;;25.99;43.20;100819.94;4974930;28;20185;-68
2022/06/30 01:15:43;;;;;;;8.25;2.70;;;;;;;25.96;43.35;100820.41;4973791;28;20503;-68
2022/06/30 01:18:08;;;;;;;14.93;2.72;;;;;;;25.94;43.35;100828.06;4973609;28;20393;-67
2022/06/30 01:20:34;;;;;;;4.65;2.50;;;;;;;25.93;43.53;100826.41;4973706;28;20054;-67
2022/06/30 01:23:01;;;;;;;6.15;2.70;;;;;;;25.90;43.92;100821.34;4973239;28;20053;-67
2022/06/30 01:25:27;;;;;;;4.03;2.20;;;;;;;25.86;43.54;100814.63;4974744;28;20023;-67
2022/06/30 01:27:53;;;;;;;4.25;2.58;;;;;;;25.82;43.71;100818.06;4989800;28;20416;-67
2022/06/30 01:30:19;;;;;;;3.40;2.55;;;;;;;25.81;43.59;100821.88;4973477;28;20157;-67
2022/06/30 01:32:45;;;;;;;4.90;2.35;;;;;;;25.76;43.64;100832.72;4973499;28;20520;-67
2022/06/30 01:35:10;;;;;;;5.88;3.35;;;;;;;25.73;43.51;100827.69;4973507;28;20444;-67
2022/06/30 01:37:54;;;;;;;3.80;2.20;;;;;;;25.69;43.67;100830.03;4973435;28;20400;-67
2022/06/30 01:40:21;;;;;;;5.80;2.88;;;;;;;25.67;43.61;100832.16;4957229;28;20054;-67
2022/06/30 01:42:46;;;;;;;2.78;2.25;;;;;;;25.62;43.84;100826.53;4957138;28;20443;-68
2022/06/30 01:45:12;;;;;;;3.65;2.85;;;;;;;25.58;43.64;100828.03;4973360;28;20031;-67
2022/06/30 01:47:37;;;;;;;5.53;2.78;;;;;;;25.51;44.15;100821.78;4989567;28;20038;-67
2022/06/30 01:50:12;;;;;;;4.72;2.30;;;;;;;25.50;43.74;100824.75;4973089;28;20096;-67
2022/06/30 01:52:38;;;;;;;5.00;2.55;;;;;;;25.44;44.15;100827.31;4973432;28;20026;-67
2022/06/30 01:55:04;;;;;;;5.60;2.67;;;;;;;25.39;44.18;100826.31;4973169;28;20074;-68
2022/06/30 01:57:29;;;;;;;3.17;2.75;;;;;;;25.36;44.01;100830.34;4957186;28;20478;-67
2022/06/30 01:59:55;;;;;;;2.88;2.17;;;;;;;25.32;44.06;100836.53;4973274;28;20109;-67
2022/06/30 02:02:20;;;;;;;3.13;2.70;;;;;;;25.31;44.15;100834.84;4973131;28;20472;-67
2022/06/30 02:04:50;;;;;;;2.65;2.28;;;;;;;25.26;44.59;100840.16;4973201;28;20512;-67
2022/06/30 02:07:16;;;;;;;4.25;2.28;;;;;;;25.24;44.29;100832.13;4957923;28;20476;-67
2022/06/30 02:09:42;;;;;;;4.40;2.60;;;;;;;25.22;44.36;100839.75;4956933;28;20481;-67
2022/06/30 02:14:52;;;;;;;5.05;2.30;;;;;;;25.16;44.22;100835.16;4973295;28;20456;-67
2022/06/30 02:17:18;;;;;;;4.82;2.60;;;;;;;25.11;44.53;100835.00;4973298;28;20050;-67
2022/06/30 02:19:43;;;;;;;3.55;2.40;;;;;;;25.08;44.20;100831.88;4973025;28;20452;-67
2022/06/30 02:22:09;;;;;;;3.85;2.42;;;;;;;25.05;44.64;100833.16;4972893;28;20026;-67
2022/06/30 02:24:34;;;;;;;6.38;2.13;;;;;;;25.01;44.47;100831.09;4972967;28;20022;-67
2022/06/30 02:27:01;;;;;;;3.83;2.45;;;;;;;25.00;45.05;100833.00;4972928;28;20081;-67
2022/06/30 02:29:26;;;;;;;3.35;2.22;;;;;;;24.98;44.99;100831.53;4972938;28;20382;-67
2022/06/30 02:31:52;;;;;;;3.30;2.60;;;;;;;24.96;44.83;100822.69;4974035;28;20029;-67
2022/06/30 02:34:17;;;;;;;7.28;2.60;;;;;;;24.93;45.19;100823.16;4972937;28;20435;-67
2022/06/30 02:36:43;;;;;;;5.53;2.80;;;;;;;24.89;44.90;100830.97;4976901;28;20034;-67
2022/06/30 02:39:08;;;;;;;4.88;2.63;;;;;;;24.87;45.09;100833.91;4960418;28;20404;-67
2022/06/30 02:41:33;;;;;;;3.20;2.58;;;;;;;24.79;45.03;100817.75;4976497;28;20030;-67
2022/06/30 02:43:59;;;;;;;4.70;2.25;;;;;;;24.82;44.91;100825.53;4960259;28;20022;-67
2022/06/30 02:46:24;;;;;;;3.33;2.40;;;;;;;24.79;44.74;100823.22;4977642;28;20429;-67
2022/06/30 02:48:50;;;;;;;3.03;2.35;;;;;;;24.78;45.10;100821.53;4976382;28;20519;-67
2022/06/30 02:51:15;;;;;;;4.80;2.75;;;;;;;24.76;45.30;100826.38;4960062;28;20037;-67
2022/06/30 02:53:40;;;;;;;6.93;2.72;;;;;;;24.76;44.69;100818.16;4992542;28;20026;-67
2022/06/30 02:56:06;;;;;;;6.57;2.53;;;;;;;24.76;44.87;100831.84;4976158;28;20030;-68
2022/06/30 02:58:31;;;;;;;5.20;2.80;;;;;;;24.72;44.86;100827.91;4977454;28;20110;-67
2022/06/30 03:00:56;;;;;;;3.25;2.53;;;;;;;24.69;45.10;100830.22;4976127;28;20078;-67
2022/06/30 03:03:21;;;;;;;3.75;2.60;;;;;;;24.67;44.65;100832.38;4976160;28;20041;-67
2022/06/30 03:05:47;;;;;;;3.08;2.35;;;;;;;24.66;45.08;100850.69;4959911;28;20031;-67
2022/06/30 03:08:12;;;;;;;3.45;2.50;;;;;;;24.64;44.93;100824.59;4975994;28;20031;-67
2022/06/30 03:10:38;;;;;;;5.95;2.53;;;;;;;24.64;45.05;100828.16;4975630;28;20070;-67
2022/06/30 03:13:03;;;;;;;4.63;2.42;;;;;;;24.62;45.03;100823.97;4977107;28;20038;-67
2022/06/30 03:15:28;;;;;;;3.85;2.42;;;;;;;24.62;44.99;100827.53;4975901;28;20035;-67
2022/06/30 03:17:56;;;;;;;3.05;2.25;;;;;;;24.62;45.10;100830.25;4975762;28;20027;-67
2022/06/30 03:20:22;;;;;;;2.58;2.38;;;;;;;24.63;45.05;100837.44;4975724;28;20476;-67
2022/06/30 03:22:47;;;;;;;4.63;2.85;;;;;;;24.65;45.45;100824.34;4976861;28;20077;-67
2022/06/30 03:25:13;;;;;;;5.38;2.60;;;;;;;24.65;45.41;100821.59;4975725;28;20081;-67
2022/06/30 03:27:38;;;;;;;6.20;2.75;;;;;;;24.66;45.27;100822.44;4975524;28;20069;-67
2022/06/30 03:30:04;;;;;;;3.80;2.50;;;;;;;24.66;45.09;100823.28;4975664;28;20030;-67
2022/06/30 03:32:29;;;;;;;7.03;2.58;;;;;;;24.60;45.09;100818.69;4975624;28;20030;-67
2022/06/30 03:34:55;;;;;;;6.28;2.90;;;;;;;24.63;45.16;100821.00;4959330;28;20026;-67
2022/06/30 03:37:20;;;;;;;5.55;2.80;;;;;;;24.60;45.00;100818.69;4959391;28;20122;-67
2022/06/30 03:39:46;;;;;;;5.07;2.80;;;;;;;24.60;45.28;100813.22;4976635;28;20404;-67
2022/06/30 03:42:11;;;;;;;6.55;3.13;;;;;;;24.58;45.24;100809.88;4976690;28;20026;-67
2022/06/30 03:44:36;;;;;;;6.40;3.17;;;;;;;24.53;44.72;100817.91;4959337;28;20105;-68
2022/06/30 03:47:02;;;;;;;10.20;2.85;;;;;;;24.53;45.05;100817.91;4976315;28;20046;-67
2022/06/30 03:49:27;;;;;;;3.20;2.75;;;;;;;24.51;45.27;100828.22;4976720;28;20026;-67
2022/06/30 03:51:53;;;;;;;4.63;2.65;;;;;;;24.50;45.39;100812.88;4975192;28;20369;-67
2022/06/30 03:54:21;;;;;;;4.85;2.90;;;;;;;24.53;45.05;100814.34;4975438;28;20081;-67
2022/06/30 03:56:47;;;;;;;8.95;2.65;;;;;;;24.50;45.74;100821.09;4975175;28;20031;-67
2022/06/30 03:59:12;;;;;;;7.15;2.35;;;;;;;24.54;44.90;100824.25;4975190;28;20030;-67
2022/06/30 04:01:38;;;;;;;6.95;2.38;;;;;;;24.55;45.34;100815.78;4959011;28;20026;-67
2022/06/30 04:04:03;;;;;;;10.48;2.38;;;;;;;24.58;45.29;100809.03;4976208;28;20065;-67
2022/06/30 04:06:28;;;;;;;3.45;2.63;;;;;;;24.58;44.78;100820.81;4975205;28;20108;-67
2022/06/30 04:08:54;;;;;;;12.05;2.90;;;;;;;24.56;45.29;100814.75;4974949;28;20455;-67
2022/06/30 04:11:19;;;;;;;6.32;2.50;;;;;;;24.62;45.19;100822.03;4974740;28;20066;-67
2022/06/30 04:13:45;;;;;;;6.28;2.70;;;;;;;24.62;44.97;100816.56;4974801;28;20031;-67
2022/06/30 04:16:10;;;;;;;4.35;2.95;;;;;;;24.65;45.43;100816.13;4974917;28;20026;-67
2022/06/30 04:18:35;;;;;;;9.07;2.53;;;;;;;24.71;45.68;100808.91;4976262;28;20031;-67
2022/06/30 04:21:01;;;;;;;9.05;2.90;;;;;;;24.75;45.32;100819.25;4975858;28;20094;-67
2022/06/30 04:23:26;;;;;;;9.50;2.60;;;;;;;24.83;45.30;100824.47;4975843;28;20387;-67
2022/06/30 04:25:51;;;;;;;5.13;2.50;;;;;;;24.92;45.37;100826.94;4974665;28;20089;-67
2022/06/30 04:28:17;;;;;;;5.43;2.47;;;;;;;25.00;44.99;100823.91;4975778;28;20027;-67
2022/06/30 04:33:26;;;;;;;8.25;1.95;;;;;;;25.28;44.95;100832.53;4975693;28;20123;-67
2022/06/30 04:35:52;;;;;;;7.05;3.03;;;;;;;25.40;44.91;100837.03;4975629;28;20062;-67
2022/06/30 04:38:17;;;;;;;4.57;2.80;;;;;;;25.56;44.78;100821.94;4975549;28;20081;-67
2022/06/30 04:43:26;;;;;;;7.80;2.58;;;;;;;25.89;45.03;100830.66;4974512;28;20033;-67
2022/06/30 04:45:52;;;;;;;7.30;2.10;;;;;;;25.98;44.41;100832.03;4974164;28;20105;-67
2022/06/30 04:48:17;;;;;;;4.75;2.95;;;;;;;26.18;44.72;100839.22;4957932;28;20033;-67
2022/06/30 04:50:42;;;;;;;9.30;3.30;;;;;;;26.30;44.06;100842.88;4974233;28;20400;-67
2022/06/30 04:53:08;;;;;;;6.25;3.20;;;;;;;26.46;44.63;100848.56;4975252;28;20385;-67
2022/06/30 04:55:33;;;;;;;8.60;2.92;;;;;;;26.59;44.72;100853.84;4974045;28;20073;-67
2022/06/30 04:57:59;;;;;;;6.40;2.70;;;;;;;26.71;44.30;100851.16;4974683;28;20440;-67
2022/06/30 05:00:24;;;;;;;6.50;2.40;;;;;;;26.83;43.67;100843.78;4975179;28;20015;-67
2022/06/30 05:02:49;;;;;;;9.20;2.85;;;;;;;26.96;43.71;100849.09;4974047;28;20088;-67
2022/06/30 05:05:15;;;;;;;3.38;2.75;;;;;;;27.08;43.00;100840.88;4973825;28;20089;-67
2022/06/30 05:07:40;;;;;;;8.13;2.17;;;;;;;27.18;43.15;100846.63;4973791;28;20485;-67
2022/06/30 05:10:06;;;;;;;12.30;3.08;;;;;;;27.25;43.09;100852.00;4973587;28;20531;-67
2022/06/30 05:12:32;;;;;;;10.98;2.50;;;;;;;27.30;43.07;100849.38;4973778;28;20026;-67
2022/06/30 05:14:58;;;;;;;3.08;2.20;;;;;;;27.45;42.92;100858.00;4973729;28;20393;-67
2022/06/30 05:17:24;;;;;;;8.48;2.97;;;;;;;27.50;42.65;100850.72;4974781;28;20036;-67
2022/06/30 05:19:49;;;;;;;14.82;2.50;;;;;;;27.56;42.35;100844.25;4973861;28;20484;-67
2022/06/30 05:22:15;;;;;;;6.20;2.88;;;;;;;27.63;42.68;100841.41;4973647;28;20026;-67
2022/06/30 05:27:47;;;;;;;4.72;2.33;;;;;;;27.87;41.82;100840.28;4942472;29;20035;-67
2022/06/30 05:30:14;;;;;;;30.33;3.47;;;;;;;27.93;41.67;100836.56;4953314;29;20050;-67
2022/06/30 05:32:39;;;;;;;8.25;3.28;;;;;;;28.03;41.33;100834.03;4953378;28;20146;-67
2022/06/30 05:35:06;;;;;;;5.97;2.60;;;;;;;28.15;41.72;100831.25;4973538;28;20424;-68
2022/06/30 05:37:31;;;;;;;5.00;3.13;;;;;;;28.26;41.68;100833.13;4973425;28;20035;-67
2022/06/30 05:39:56;;;;;;;4.60;2.70;;;;;;;28.39;41.71;100843.03;4973383;28;20034;-67
2022/06/30 05:42:22;;;;;;;5.05;2.60;;;;;;;28.48;41.36;100839.63;4974554;28;20030;-67
2022/06/30 05:44:48;;;;;;;4.93;2.13;;;;;;;28.62;40.93;100846.53;4974519;28;20030;-67
2022/06/30 05:47:13;;;;;;;6.70;3.35;;;;;;;28.72;41.12;100835.72;4974473;28;20097;-67
2022/06/30 05:49:38;;;;;;;4.85;2.70;;;;;;;28.81;41.24;100847.19;4989376;28;20399;-67
2022/06/30 05:52:04;;;;;;;10.70;2.67;;;;;;;28.91;40.79;100836.34;4974417;28;20030;-67
2022/06/30 05:54:30;;;;;;;6.05;2.15;;;;;;;29.04;40.42;100835.16;4973303;28;20476;-67
2022/06/30 05:56:55;;;;;;;10.52;2.88;;;;;;;29.19;40.33;100835.41;4973274;28;20547;-67
2022/06/30 05:59:20;;;;;;;5.88;2.83;;;;;;;29.34;40.49;100847.56;4973145;28;20022;-67
2022/06/30 06:01:46;;;;;;;8.20;2.90;;;;;;;29.51;39.63;100849.50;4956989;28;20490;-67
2022/06/30 06:04:11;;;;;;;6.00;3.60;;;;;;;29.61;39.61;100846.88;4973275;28;20030;-67
2022/06/30 06:06:36;;;;;;;7.82;3.45;;;;;;;29.69;39.53;100851.97;4973257;28;20034;-67
2022/06/30 06:09:02;;;;;;;6.15;3.28;;;;;;;29.77;39.43;100841.31;4974572;28;20481;-67
2022/06/30 06:11:28;;;;;;;6.35;2.95;;;;;;;29.86;40.10;100845.34;4960674;28;20042;-67
2022/06/30 06:13:53;;;;;;;9.60;3.90;;;;;;;29.95;39.66;100848.50;4977395;28;20031;-67
2022/06/30 06:16:18;;;;;;;8.88;4.18;;;;;;;30.04;39.43;100852.47;4976904;28;20528;-67
2022/06/30 06:18:44;;;;;;;5.53;3.15;;;;;;;30.12;39.58;100860.34;4977039;28;20034;-67
2022/06/30 06:21:09;;;;;;;7.22;3.63;;;;;;;30.27;38.76;100863.28;4960761;28;20023;-67
2022/06/30 06:23:35;;;;;;;11.77;4.22;;;;;;;30.41;38.88;100867.34;4978097;28;20117;-67
2022/06/30 06:26:00;;;;;;;11.00;4.20;;;;;;;30.51;38.99;100870.22;4976816;28;20366;-67
2022/06/30 06:31:09;;;;;;;6.35;3.67;;;;;;;30.74;38.57;100871.03;4977897;28;20139;-67
2022/06/30 06:33:35;;;;;;;6.20;4.10;;;;;;;30.86;38.49;100871.69;4960598;28;20432;-67
2022/06/30 06:36:02;;;;;;;5.93;3.53;;;;;;;30.89;38.08;100871.19;4977886;28;20114;-67
2022/06/30 06:38:27;;;;;;;7.68;4.05;;;;;;;31.06;38.08;100863.63;4992857;28;20023;-67
2022/06/30 06:40:52;;;;;;;6.75;3.38;;;;;;;31.18;38.30;100869.00;4960330;28;20022;-67
2022/06/30 06:43:18;;;;;;;9.05;4.07;;;;;;;31.29;38.09;100871.59;4977680;28;20041;-67
2022/06/30 06:45:43;;;;;;;8.63;4.03;;;;;;;31.41;38.27;100869.44;4976427;28;20499;-67
2022/06/30 06:48:09;;;;;;;8.00;3.92;;;;;;;31.53;37.23;100870.13;4977601;28;20054;-67
2022/06/30 06:50:34;;;;;;;6.85;3.85;;;;;;;31.57;37.52;100868.50;4976343;28;20096;-67
2022/06/30 06:52:59;;;;;;;10.52;4.75;;;;;;;31.71;37.51;100875.22;4960162;28;20427;-67
2022/06/30 06:55:25;;;;;;;6.47;3.63;;;;;;;31.88;37.19;100877.00;4976343;28;20026;-67
2022/06/30 06:57:50;;;;;;;8.48;4.07;;;;;;;32.02;37.15;100886.56;4976257;28;20150;-67
2022/06/30 07:00:17;;;;;;;12.30;4.13;;;;;;;32.09;36.46;100887.97;4959942;28;20392;-67
2022/06/30 07:02:43;;;;;;;11.52;3.85;;;;;;;32.18;36.58;100889.13;4977385;28;20026;-67
2022/06/30 07:05:09;;;;;;;7.22;3.38;;;;;;;32.24;36.64;100884.44;4977155;28;20118;-67
2022/06/30 07:07:35;;;;;;;9.60;3.58;;;;;;;32.36;36.63;100893.34;4976060;28;20069;-67
2022/06/30 07:10:01;;;;;;;7.80;3.38;;;;;;;32.51;36.67;100896.19;4975951;28;20109;-67
2022/06/30 07:12:26;;;;;;;7.57;4.65;;;;;;;32.64;36.45;100903.19;4959724;28;20378;-67
2022/06/30 07:14:51;;;;;;;11.88;3.72;;;;;;;32.73;36.07;100894.06;4977185;28;20027;-67
2022/06/30 07:17:17;;;;;;;10.05;3.35;;;;;;;32.89;35.48;100908.78;4959733;28;20034;-67
2022/06/30 07:19:42;;;;;;;5.95;3.88;;;;;;;32.98;35.75;100903.53;4975729;28;20031;-67
2022/06/30 07:22:08;;;;;;;5.28;2.90;;;;;;;33.11;35.88;100914.97;4976713;28;20031;-67
2022/06/30 07:24:33;;;;;;;9.48;3.35;;;;;;;33.21;35.29;100915.00;4943706;28;20041;-67
2022/06/30 07:26:59;;;;;;;7.43;3.50;;;;;;;33.36;34.96;100903.06;4959621;28;20037;-67
2022/06/30 07:29:26;;;;;;;8.65;3.47;;;;;;;33.51;34.63;100911.38;4976920;28;20436;-67
2022/06/30 07:31:52;;;;;;;10.20;3.28;;;;;;;33.62;34.49;100915.00;4975652;28;20085;-67
2022/06/30 07:34:17;;;;;;;6.57;2.78;;;;;;;33.71;35.31;100914.16;4992090;28;20022;-67
2022/06/30 07:36:43;;;;;;;7.43;2.90;;;;;;;33.80;34.33;100897.75;4976812;28;20074;-67
2022/06/30 07:39:08;;;;;;;5.88;2.45;;;;;;;33.84;35.00;100899.69;4959439;28;20078;-67
2022/06/30 07:41:34;;;;;;;8.95;3.28;;;;;;;33.91;35.04;100908.59;4959663;28;20030;-67
2022/06/30 07:44:01;;;;;;;9.20;3.40;;;;;;;34.03;34.76;100910.22;4959350;28;20442;-67
2022/06/30 07:46:26;;;;;;;5.40;2.65;;;;;;;34.08;34.94;100905.50;4976682;28;20037;-67
2022/06/30 07:48:52;;;;;;;6.57;2.90;;;;;;;34.23;34.29;100912.97;4976506;28;20027;-67
2022/06/30 07:51:19;;;;;;;7.82;2.28;;;;;;;34.36;33.55;100904.84;4959090;28;20391;-67
2022/06/30 07:53:44;;;;;;;5.25;2.60;;;;;;;34.50;33.86;100907.84;4975316;28;20089;-68
2022/06/30 07:56:10;;;;;;;5.25;2.40;;;;;;;34.61;33.70;100912.28;4975201;28;20027;-68
2022/06/30 07:58:35;;;;;;;6.20;2.40;;;;;;;34.74;33.98;100906.06;4975143;28;20030;-68
2022/06/30 08:01:01;;;;;;;10.43;2.88;;;;;;;34.82;33.22;100904.63;4959031;28;20425;-68
2022/06/30 08:03:26;;;;;;;6.13;2.45;;;;;;;34.90;33.84;100895.66;4976538;28;20073;-68
2022/06/30 08:05:51;;;;;;;5.68;2.63;;;;;;;35.04;33.33;100905.88;4975167;28;20027;-68
2022/06/30 08:08:17;;;;;;;7.30;2.22;;;;;;;35.27;32.71;100906.28;4958891;28;20039;-68
2022/06/30 08:10:42;;;;;;;5.30;2.40;;;;;;;35.44;33.09;100913.09;4958622;28;20043;-68
2022/06/30 08:13:08;;;;;;;6.43;2.22;;;;;;;35.64;32.37;100917.69;4974837;28;20508;-67
2022/06/30 08:15:33;;;;;;;6.10;2.10;;;;;;;35.78;32.88;100917.84;4974812;28;20130;-68
2022/06/30 08:18:03;;;;;;;11.20;1.90;;;;;;;35.95;32.38;100924.63;4974815;28;20126;-68
2022/06/30 08:20:28;;;;;;;9.70;2.10;;;;;;;36.11;31.91;100931.75;4974720;28;20023;-67
2022/06/30 08:22:54;;;;;;;7.07;3.33;;;;;;;36.30;31.88;100925.38;4974753;28;20110;-67
2022/06/30 08:25:19;;;;;;;6.40;2.50;;;;;;;36.42;31.57;100920.22;4958581;28;20564;-67
2022/06/30 08:27:45;;;;;;;13.10;2.13;;;;;;;36.56;31.10;100910.84;4974581;28;20087;-68
2022/06/30 08:30:10;;;;;;;5.28;2.60;;;;;;;36.67;31.61;100908.72;4974569;28;20027;-68
2022/06/30 08:32:36;;;;;;;3.00;1.40;;;;;;;36.83;32.04;100907.38;4973893;28;20054;-68
2022/06/30 08:35:01;;;;;;;4.50;1.90;;;;;;;37.00;30.87;100901.28;4958083;28;20026;-67
2022/06/30 08:37:26;;;;;;;7.63;1.55;;;;;;;37.05;31.06;100907.63;4974550;28;20030;-68
2022/06/30 08:42:37;;;;;;;5.70;1.90;;;;;;;37.35;30.65;100909.13;4974623;28;20038;-68
2022/06/30 08:45:17;;;;;;;7.13;2.65;;;;;;;37.48;30.26;100902.75;4974305;28;20535;-68
2022/06/30 08:47:47;;;;;;;5.60;1.70;;;;;;;37.56;29.97;100909.59;4988737;28;20029;-68
2022/06/30 08:50:14;;;;;;;2.70;1.48;;;;;;;37.61;30.26;100898.31;4958069;28;20037;-68
2022/06/30 08:52:53;;;;;;;3.47;1.90;;;;;;;37.63;30.58;100896.06;4958219;28;20022;-68
2022/06/30 08:55:27;;;;;;;6.65;2.45;;;;;;;37.62;29.92;100900.84;4958012;28;20050;-68
2022/06/30 08:58:07;;;;;;;3.45;1.67;;;;;;;37.54;30.14;100898.75;4974173;28;20077;-68
2022/06/30 09:00:34;;;;;;;9.60;1.90;;;;;;;37.61;30.41;100901.13;4957826;28;20046;-68
2022/06/30 09:03:01;;;;;;;5.78;2.00;;;;;;;37.67;29.63;100905.50;4974053;28;20027;-68
2022/06/30 09:05:26;;;;;;;6.55;2.00;;;;;;;37.75;29.40;100907.56;4974023;28;20412;-68
2022/06/30 09:07:51;;;;;;;5.13;1.95;;;;;;;37.84;29.65;100895.38;4957800;28;20030;-68
2022/06/30 09:10:17;;;;;;;7.63;2.28;;;;;;;37.96;29.76;100900.50;4973579;28;20051;-68
2022/06/30 09:13:02;;;;;;;6.75;1.98;;;;;;;38.07;30.01;100893.56;4973813;28;20038;-68
2022/06/30 09:15:32;;;;;;;3.50;1.80;;;;;;;38.19;29.27;100890.25;4957633;28;20130;-68
2022/06/30 09:18:01;;;;;;;4.07;1.75;;;;;;;38.27;29.47;100898.75;4974955;28;20050;-68
2022/06/30 09:20:38;;;;;;;4.80;1.80;;;;;;;38.41;28.98;100902.41;4973714;28;20038;-68
2022/06/30 09:23:20;;;;;;;6.22;1.40;;;;;;;38.56;28.96;100894.81;4973626;28;20050;-68
2022/06/30 09:25:54;;;;;;;3.22;1.48;;;;;;;38.66;28.54;100895.41;4957463;28;20034;-68
2022/06/30 09:28:42;;;;;;;3.42;1.30;;;;;;;38.78;29.06;100894.91;4989824;28;20512;-68
2022/06/30 09:31:10;;;;;;;6.53;2.33;;;;;;;38.90;28.75;100895.16;4973470;28;20149;-68
2022/06/30 09:33:39;;;;;;;4.25;1.40;;;;;;;39.03;28.65;100883.88;4973618;28;20027;-68
2022/06/30 09:36:22;;;;;;;10.38;2.50;;;;;;;39.19;27.90;100889.97;4973559;28;20400;-68
2022/06/30 09:39:04;;;;;;;8.40;2.03;;;;;;;39.30;27.59;100887.75;4957308;28;20027;-68
2022/06/30 09:41:31;;;;;;;8.98;2.63;;;;;;;39.39;28.31;100886.69;4974646;28;20028;-68
2022/06/30 09:43:56;;;;;;;4.25;1.27;;;;;;;39.48;28.32;100893.16;4956932;28;20023;-69
2022/06/30 09:46:22;;;;;;;5.50;2.22;;;;;;;39.54;27.86;100886.25;4973404;28;20114;-68
2022/06/30 09:48:47;;;;;;;4.55;1.95;;;;;;;39.66;28.15;100887.69;4973294;28;20065;-68
2022/06/30 09:51:13;;;;;;;5.70;2.00;;;;;;;39.75;27.21;100886.59;4974421;28;20033;-68
2022/06/30 09:53:38;;;;;;;7.10;2.28;;;;;;;39.82;27.04;100892.56;4973307;28;20090;-68
2022/06/30 09:56:15;;;;;;;6.43;1.85;;;;;;;39.95;26.63;100893.63;4974440;28;20062;-68
2022/06/30 09:58:42;;;;;;;5.53;1.80;;;;;;;40.06;27.22;100890.19;4973279;28;20030;-68
2022/06/30 10:01:09;;;;;;;8.98;2.50;;;;;;;40.32;26.91;100898.72;4973244;28;20029;-68
2022/06/30 10:03:44;;;;;;;5.15;2.60;;;;;;;40.56;27.03;100887.09;4973227;28;20069;-68
2022/06/30 10:06:18;;;;;;;8.52;2.47;;;;;;;40.90;26.63;100891.91;4957092;28;20074;-68
2022/06/30 10:08:43;;;;;;;7.35;6.70;;;;;;;41.20;26.58;100888.13;4973256;28;20457;-68
2022/06/30 10:11:09;;;;;;;1999.90;999.90;;;;;;;41.67;26.07;100901.13;4974035;28;20118;-68
2022/06/30 10:13:36;;;;;;;145.73;139.23;;;;;;;42.29;25.81;100901.44;4973055;28;20559;-68
2022/06/30 10:16:04;;;;;;;4.38;2.70;;;;;;;43.00;25.42;100900.66;4956991;28;20050;-68
2022/06/30 10:18:30;;;;;;;7.72;3.20;;;;;;;43.65;24.54;100899.88;4974442;28;20531;-68
2022/06/30 10:20:58;;;;;;;8.80;2.50;;;;;;;44.38;23.61;100903.63;4956806;28;20074;-68
2022/06/30 10:23:23;;;;;;;5.75;2.45;;;;;;;44.17;23.75;100886.78;4974222;28;20018;-68
2022/06/30 10:25:50;;;;;;;6.18;2.55;;;;;;;43.39;24.44;100900.13;4974188;28;20030;-68
2022/06/30 10:28:18;;;;;;;4.93;2.28;;;;;;;43.06;24.46;100897.28;4973070;28;20027;-68
2022/06/30 10:30:46;;;;;;;4.13;2.10;;;;;;;42.56;24.97;100890.84;4972981;28;20623;-68
2022/06/30 10:33:24;;;;;;;5.43;2.85;;;;;;;42.05;25.37;100892.72;4974169;28;20481;-68
2022/06/30 10:36:08;;;;;;;8.60;2.50;;;;;;;41.70;25.48;100894.84;4989195;28;20369;-68
2022/06/30 10:38:53;;;;;;;6.15;2.45;;;;;;;41.62;25.72;100892.03;4956740;28;20443;-67
2022/06/30 10:41:21;;;;;;;7.05;3.15;;;;;;;41.53;25.51;100888.41;4956696;28;20023;-68
2022/06/30 10:44:05;;;;;;;7.20;2.85;;;;;;;41.53;25.32;100888.41;4972750;28;20073;-68
2022/06/30 10:46:31;;;;;;;8.20;3.45;;;;;;;42.04;25.04;100882.66;4974101;28;20031;-67
2022/06/30 10:48:57;;;;;;;4.00;2.53;;;;;;;42.49;24.68;100882.91;4972726;28;20055;-67
2022/06/30 10:51:23;;;;;;;6.78;2.30;;;;;;;42.42;24.63;100871.34;4956569;28;20468;-68
2022/06/30 10:53:51;;;;;;;6.82;1.92;;;;;;;42.28;25.24;100876.41;4972884;28;20019;-68
2022/06/30 10:56:17;;;;;;;3.63;2.10;;;;;;;42.26;24.47;100879.56;4957239;28;20033;-67
2022/06/30 10:59:06;;;;;;;7.93;2.92;;;;;;;42.11;24.76;100876.47;4960224;28;20026;-67
2022/06/30 11:01:31;;;;;;;3.63;1.75;;;;;;;41.96;24.88;100874.22;4976079;28;20112;-67
2022/06/30 11:03:57;;;;;;;4.97;2.35;;;;;;;41.78;24.94;100876.28;4976240;28;20030;-67
2022/06/30 11:06:26;;;;;;;3.90;1.63;;;;;;;41.76;24.89;100865.38;4976164;28;20515;-67
2022/06/30 11:08:57;;;;;;;6.25;2.17;;;;;;;41.71;24.58;100864.69;4991984;28;20066;-67
2022/06/30 11:11:23;;;;;;;5.50;1.90;;;;;;;41.35;25.06;100862.28;4960548;28;20043;-67
2022/06/30 11:14:11;;;;;;;7.38;2.70;;;;;;;40.85;25.94;100855.50;4976571;28;20046;-67
2022/06/30 11:16:38;;;;;;;6.72;2.60;;;;;;;40.47;26.40;100861.75;4977043;28;20045;-67
2022/06/30 11:19:05;;;;;;;4.80;2.30;;;;;;;40.12;25.93;100862.81;4960103;28;20053;-68
2022/06/30 11:21:31;;;;;;;4.00;2.63;;;;;;;39.88;26.17;100859.56;4975869;28;20022;-67
2022/06/30 11:24:00;;;;;;;9.40;2.72;;;;;;;39.65;25.86;100855.16;4959875;28;20082;-67
2022/06/30 11:29:13;;;;;;;8.13;2.28;;;;;;;39.51;26.17;100861.66;4975995;28;20037;-68
2022/06/30 11:31:42;;;;;;;8.20;1.45;;;;;;;39.54;26.21;100849.78;4959434;28;20023;-67
2022/06/30 11:34:13;;;;;;;5.85;1.80;;;;;;;39.45;26.26;100846.09;4975694;28;20038;-67
2022/06/30 11:36:40;;;;;;;3.40;1.63;;;;;;;39.52;26.00;100846.50;4975550;28;20033;-67
2022/06/30 11:39:18;;;;;;;4.10;1.70;;;;;;;39.68;25.55;100848.88;4975619;28;20377;-67
2022/06/30 11:41:57;;;;;;;4.90;1.80;;;;;;;39.73;25.70;100840.34;4975662;28;20212;-67
2022/06/30 11:44:29;;;;;;;4.07;2.35;;;;;;;39.95;26.08;100838.28;4975620;28;20027;-67